Time;durP1;ratioP1;P1;durP2;ratioP2;P2;SDS_P1;SDS_P2;PMS_P1;PMS_P2;Temp;Humidity;BMP_temperature;BMP_pressure;BME280_temperature;BME280_humidity;BME280_pressure;Samples;Min_cycle;Max_cycle;Signal;HPM_P1;HPM_P2
2021/12/25 00:01:10;;;;;;;3.10;1.80;;;0.90;99.90;;;1.27;100.00;-19770.25;5037098;28;20641;-66
2021/12/25 00:03:40;;;;;;;2.70;1.93;;;0.70;99.90;;;1.27;100.00;-19770.06;5039716;28;20197;-66
2021/12/25 00:06:09;;;;;;;2.77;2.10;;;0.70;99.90;;;1.41;100.00;-19774.69;5042477;28;20209;-65
2021/12/25 00:08:38;;;;;;;3.50;2.00;;;0.70;99.90;;;1.40;100.00;-19774.53;5035012;28;20933;-65
2021/12/25 00:11:08;;;;;;;3.60;2.10;;;0.70;99.90;;;1.29;100.00;-19770.75;5039304;28;20261;-64
2021/12/25 00:13:36;;;;;;;3.90;2.00;;;0.70;99.90;;;1.28;100.00;-19770.41;5039084;28;20204;-65
2021/12/25 00:16:06;;;;;;;4.17;2.30;;;0.70;99.90;;;1.15;100.00;-19766.16;5039043;28;20310;-65
2021/12/25 00:18:35;;;;;;;5.80;2.23;;;0.60;99.90;;;1.15;100.00;-19765.97;5037129;28;20204;-65
2021/12/25 00:21:04;;;;;;;3.37;2.50;;;0.50;99.90;;;0.93;100.00;-19758.47;5037108;28;20608;-64
2021/12/25 00:23:33;;;;;;;3.20;2.17;;;0.40;99.90;;;1.17;100.00;-19766.84;5039514;28;20269;-63
2021/12/25 00:26:05;;;;;;;2.33;1.73;;;0.40;99.90;;;1.36;100.00;-19772.97;5037383;28;20241;-64
2021/12/25 00:31:46;;;;;;;2.27;1.50;;;0.50;99.90;;;1.25;100.00;-19769.41;5032708;28;20226;-63
2021/12/25 00:34:15;;;;;;;1.83;1.43;;;0.50;99.90;;;1.22;100.00;-19768.53;5035872;28;20321;-62
2021/12/25 00:36:44;;;;;;;1.53;1.10;;;0.40;99.90;;;1.30;100.00;-19771.09;5046193;28;20200;-63
2021/12/25 00:39:13;;;;;;;1.77;1.20;;;0.50;99.90;;;1.40;100.00;-19774.53;5044408;28;20201;-63
2021/12/25 00:41:41;;;;;;;1.97;1.40;;;0.50;99.90;;;1.30;100.00;-19770.94;5045788;28;20197;-63
2021/12/25 00:44:09;;;;;;;2.57;1.40;;;0.50;99.90;;;1.20;100.00;-19767.84;5042607;28;20206;-64
2021/12/25 00:46:38;;;;;;;5.40;2.07;;;0.50;99.90;;;1.21;100.00;-19768.03;5039912;28;20207;-62
2021/12/25 00:49:06;;;;;;;1.53;1.40;;;0.50;99.90;;;1.01;100.00;-19761.38;5051960;28;20218;-62
2021/12/25 00:51:34;;;;;;;1.40;1.17;;;0.40;99.90;;;1.10;100.00;-19764.25;5048795;28;20225;-62
2021/12/25 00:54:05;;;;;;;1.50;1.40;;;0.40;99.90;;;1.08;100.00;-19763.59;5047035;28;20331;-62
2021/12/25 00:56:33;;;;;;;1.40;1.10;;;0.30;99.90;;;1.20;100.00;-19767.84;5041755;28;20210;-64
2021/12/25 00:59:01;;;;;;;1.27;1.03;;;0.40;99.90;;;1.21;100.00;-19768.03;5051274;28;20202;-64
2021/12/25 01:01:30;;;;;;;1.30;1.20;;;0.30;99.90;;;1.25;100.00;-19769.41;5047462;28;20226;-64
2021/12/25 01:03:58;;;;;;;2.23;1.30;;;0.40;99.90;;;1.27;100.00;-19770.25;5046706;28;20233;-62
2021/12/25 01:06:26;;;;;;;1.20;1.10;;;0.40;99.90;;;1.36;100.00;-19773.16;5034241;28;20197;-62
2021/12/25 01:08:55;;;;;;;1.93;1.17;;;0.50;99.90;;;1.42;100.00;-19775.03;5044068;28;20295;-62
2021/12/25 01:11:26;;;;;;;2.30;1.20;;;0.50;99.90;;;1.23;100.00;-19768.88;5039576;28;20560;-63
2021/12/25 01:14:01;;;;;;;1.20;1.10;;;0.40;99.90;;;1.04;100.00;-19762.38;5043275;28;20214;-65
2021/12/25 01:16:57;;;;;;;1.20;1.10;;;0.40;99.90;;;1.18;100.00;-19767.00;5047629;28;20203;-63
2021/12/25 01:19:53;;;;;;;0.90;0.83;;;0.40;99.90;;;1.10;100.00;-19764.25;5046706;28;20210;-63
2021/12/25 01:25:30;;;;;;;1.30;1.10;;;0.40;99.90;;;1.05;100.00;-19762.56;5019249;28;20228;-62
2021/12/25 01:30:51;;;;;;;2.87;1.20;;;0.40;99.90;;;1.23;100.00;-19768.88;5046109;28;20641;-63
2021/12/25 01:33:34;;;;;;;1.13;1.03;;;0.40;99.90;;;1.37;100.00;-19773.34;5049631;28;20210;-64
2021/12/25 01:36:32;;;;;;;1.57;1.40;;;0.40;99.90;;;1.20;100.00;-19767.84;5049545;28;20292;-64
2021/12/25 01:39:08;;;;;;;1.03;0.93;;;0.40;99.90;;;1.04;100.00;-19762.22;5048285;28;20310;-62
2021/12/25 01:42:00;;;;;;;1.47;1.00;;;0.40;99.90;;;0.73;100.00;-19751.63;5039089;28;20223;-62
2021/12/25 01:50:06;;;;;;;1.07;0.60;;;-0.20;99.90;;;0.02;100.00;-19727.34;5048624;28;20312;-62
2021/12/25 01:52:35;;;;;;;0.77;0.77;;;-0.50;99.90;;;-0.01;100.00;-19726.66;5049793;28;20240;-62
2021/12/25 01:55:11;;;;;;;1.10;1.00;;;-0.50;99.90;;;-0.05;100.00;-19725.28;5050290;28;20235;-63
2021/12/25 01:57:40;;;;;;;1.57;0.70;;;-0.60;99.90;;;0.11;100.00;-19730.59;5050580;28;20243;-62
2021/12/25 02:00:17;;;;;;;1.10;0.70;;;-0.60;99.90;;;0.01;100.00;-19727.16;5049444;28;20237;-61
2021/12/25 02:02:47;;;;;;;2.87;0.73;;;-0.60;99.90;;;-0.03;100.00;-19725.97;5044188;28;20296;-61
2021/12/25 02:05:16;;;;;;;0.50;0.50;;;-0.60;99.90;;;-0.23;100.00;-19718.97;5044018;28;20270;-62
2021/12/25 02:07:45;;;;;;;0.60;0.50;;;-0.70;99.90;;;-0.22;100.00;-19719.47;5048980;28;20290;-61
2021/12/25 02:10:16;;;;;;;0.43;0.40;;;-0.80;99.90;;;-0.40;96.38;-19713.16;5041761;28;20205;-61
2021/12/25 02:12:45;;;;;;;0.50;0.50;;;-0.90;99.90;;;-0.57;99.13;-19707.34;5049379;28;20297;-61
2021/12/25 02:15:36;;;;;;;0.67;0.50;;;-1.10;99.90;;;-0.62;97.15;-19705.63;5036194;28;20669;-61
2021/12/25 02:18:12;;;;;;;0.83;0.50;;;-1.30;99.90;;;-0.65;95.44;-19704.59;5049246;28;20667;-61
2021/12/25 02:20:49;;;;;;;0.40;0.40;;;;;;;-0.55;100.00;-19708.00;5048801;28;20196;-61
2021/12/25 02:23:23;;;;;;;0.50;0.40;;;-1.30;99.90;;;-0.79;96.57;-19699.97;5048806;28;20319;-60
2021/12/25 02:25:55;;;;;;;0.40;0.40;;;-1.30;99.90;;;-0.61;95.71;-19706.13;5049397;28;20244;-61
2021/12/25 02:28:25;;;;;;;0.67;0.60;;;-1.20;99.90;;;-0.90;97.58;-19696.06;5048691;28;20296;-60
2021/12/25 02:30:58;;;;;;;0.70;0.50;;;-1.40;99.90;;;-0.89;98.80;-19696.56;5048915;28;20311;-62
2021/12/25 02:33:28;;;;;;;0.60;0.53;;;-1.50;99.90;;;-1.01;100.00;-19692.47;5041447;28;20202;-62
2021/12/25 02:35:58;;;;;;;0.60;0.50;;;-1.50;99.90;;;-1.04;100.00;-19691.44;5049311;28;20210;-62
2021/12/25 02:38:28;;;;;;;0.50;0.50;;;-1.60;99.90;;;-0.86;100.00;-19697.59;5048893;28;20903;-62
2021/12/25 02:40:57;;;;;;;1.70;0.60;;;-1.60;99.90;;;-0.71;100.00;-19702.56;5043069;28;20213;-62
2021/12/25 02:43:25;;;;;;;0.70;0.50;;;-1.50;99.90;;;-1.09;100.00;-19689.72;5048321;28;20294;-63
2021/12/25 02:45:55;;;;;;;0.53;0.53;;;-1.60;99.90;;;-1.08;100.00;-19689.91;5049058;28;20874;-60
2021/12/25 02:48:24;;;;;;;0.90;0.60;;;-1.60;99.90;;;-0.90;100.00;-19696.06;5047347;28;20204;-62
2021/12/25 02:50:52;;;;;;;0.60;0.60;;;-1.60;99.90;;;-0.51;100.00;-19709.38;5048819;28;20649;-62
2021/12/25 02:53:22;;;;;;;0.50;0.50;;;-1.40;99.90;;;-0.84;100.00;-19698.28;5048440;28;20680;-62
2021/12/25 02:55:51;;;;;;;0.80;0.80;;;-1.50;99.90;;;-0.69;100.00;-19703.41;5049025;28;20259;-61
2021/12/25 02:58:19;;;;;;;0.70;0.60;;;-1.50;99.90;;;-1.04;100.00;-19691.44;5048502;28;20312;-61
2021/12/25 03:00:54;;;;;;;1.07;0.70;;;-1.60;99.90;;;-0.97;100.00;-19693.66;5046144;28;20664;-62
2021/12/25 03:03:23;;;;;;;0.70;0.70;;;-1.60;99.90;;;-0.85;100.00;-19697.94;5043572;28;20205;-62
2021/12/25 03:05:51;;;;;;;1.00;0.80;;;-1.60;99.90;;;-0.93;100.00;-19695.19;5046548;28;20280;-63
2021/12/25 03:08:21;;;;;;;0.90;0.60;;;-1.50;99.90;;;-0.66;100.00;-19704.44;5048564;28;20229;-62
2021/12/25 03:10:49;;;;;;;0.77;0.70;;;-1.40;99.90;;;-0.70;100.00;-19703.06;5044907;28;20227;-63
2021/12/25 03:13:31;;;;;;;0.60;0.60;;;-1.40;99.90;;;-0.79;100.00;-19699.97;5045953;28;20284;-63
2021/12/25 03:16:01;;;;;;;1.77;0.80;;;-1.40;99.90;;;-0.59;100.00;-19706.66;5048974;28;20212;-62
2021/12/25 03:18:36;;;;;;;1.53;0.80;;;-1.40;99.90;;;-0.76;100.00;-19701.00;5048507;28;20533;-61
2021/12/25 03:21:06;;;;;;;0.93;0.70;;;-1.40;99.90;;;-0.88;100.00;-19696.72;5045644;28;20741;-62
2021/12/25 03:23:38;;;;;;;1.97;0.80;;;-1.50;99.90;;;-0.94;100.00;-19694.84;5048479;28;20200;-63
2021/12/25 03:26:08;;;;;;;0.67;0.60;;;-1.50;99.90;;;-0.96;100.00;-19694.16;5047813;28;20241;-62
2021/12/25 03:28:42;;;;;;;1.63;0.90;;;-1.50;99.90;;;-1.06;100.00;-19690.56;5042567;28;20726;-62
2021/12/25 03:31:16;;;;;;;1.17;0.70;;;-1.60;99.90;;;-0.94;100.00;-19694.84;5044800;28;20298;-61
2021/12/25 03:33:47;;;;;;;1.10;0.63;;;-1.60;99.90;;;-0.86;100.00;-19697.59;5048409;28;20204;-61
2021/12/25 03:36:16;;;;;;;0.87;0.70;;;-1.60;99.90;;;-0.92;100.00;-19695.38;5048805;28;20379;-61
2021/12/25 03:38:47;;;;;;;0.70;0.70;;;-1.60;99.90;;;-1.10;100.00;-19689.38;5043377;28;20252;-60
2021/12/25 03:41:18;;;;;;;1.50;0.80;;;-1.60;99.90;;;-0.87;100.00;-19697.25;5048693;28;20209;-67
2021/12/25 03:43:47;;;;;;;1.37;0.60;;;-1.60;99.90;;;-0.83;100.00;-19698.59;5049010;28;20899;-65
2021/12/25 03:46:17;;;;;;;1.50;0.80;;;-1.60;99.90;;;-0.89;100.00;-19696.38;5049904;28;20305;-65
2021/12/25 03:49:05;;;;;;;0.83;0.57;;;-1.60;99.90;;;-0.86;100.00;-19697.41;5049913;28;20205;-66
2021/12/25 04:00:01;;;;;;;0.53;0.40;;;-1.60;99.90;;;-1.06;100.00;-19690.56;5047324;28;20209;-66
2021/12/25 04:02:35;;;;;;;0.80;0.70;;;-1.70;99.90;;;-1.25;100.00;-19684.25;5048240;28;20279;-65
2021/12/25 04:05:14;;;;;;;0.80;0.70;;;-1.80;99.90;;;-1.19;100.00;-19686.13;5042814;28;20668;-66
2021/12/25 04:10:36;;;;;;;0.80;0.70;;;-1.80;99.90;;;-1.07;100.00;-19690.41;5038004;28;20233;-67
2021/12/25 04:13:12;;;;;;;0.83;0.40;;;-1.80;99.90;;;-1.23;100.00;-19684.94;5045630;28;20624;-67
2021/12/25 04:15:41;;;;;;;1.43;0.60;;;-1.70;99.90;;;-1.29;100.00;-19683.06;5052265;28;20256;-65
2021/12/25 04:18:10;;;;;;;1.07;0.60;;;-1.90;99.90;;;-1.22;100.00;-19685.44;5038255;28;20313;-65
2021/12/25 04:20:40;;;;;;;1.13;0.63;;;-1.80;99.90;;;-1.22;100.00;-19685.44;5051901;28;20283;-67
2021/12/25 04:23:12;;;;;;;0.70;0.50;;;-1.80;99.90;;;-1.31;100.00;-19682.38;5051947;28;20236;-66
2021/12/25 04:25:42;;;;;;;0.50;0.50;;;-1.90;99.90;;;-1.25;100.00;-19684.25;5046250;28;20372;-66
2021/12/25 04:28:16;;;;;;;1.20;0.73;;;-1.90;99.90;;;-1.18;100.00;-19686.47;5052357;28;20200;-68
2021/12/25 04:31:04;;;;;;;0.90;0.70;;;-1.90;99.90;;;-1.05;100.00;-19691.09;5051414;28;20247;-67
2021/12/25 04:48:01;;;;;;;2.97;0.60;;;-1.90;99.90;;;-1.26;100.00;-19683.91;5044629;28;20320;-66
2021/12/25 05:01:49;;;;;;;0.90;0.73;;;-1.90;99.90;;;-1.06;100.00;-19690.56;5051695;28;20235;-66
2021/12/25 05:04:22;;;;;;;0.80;0.80;;;-1.80;99.90;;;-1.10;100.00;-19689.38;5050394;28;20303;-66
2021/12/25 05:06:50;;;;;;;1.43;0.90;;;-1.90;99.90;;;-1.01;100.00;-19692.28;5048420;28;20238;-66
2021/12/25 05:09:19;;;;;;;1.20;0.70;;;-1.80;99.90;;;-1.37;100.00;-19680.31;5038170;28;20204;-66
2021/12/25 05:11:47;;;;;;;0.70;0.70;;;-1.90;99.90;;;-1.15;100.00;-19687.50;5044119;28;20323;-67
2021/12/25 05:14:16;;;;;;;1.00;0.80;;;-1.90;99.90;;;-1.38;100.00;-19679.81;5048682;28;20240;-66
2021/12/25 05:16:44;;;;;;;1.63;0.80;;;-2.00;99.90;;;-1.50;100.00;-19675.69;5050589;28;20553;-67
2021/12/25 05:19:12;;;;;;;2.47;1.00;;;-2.10;99.90;;;-1.45;100.00;-19677.41;5040939;28;20650;-66
2021/12/25 05:21:41;;;;;;;1.63;0.73;;;-2.10;99.90;;;-1.48;100.00;-19676.38;5044792;28;20739;-66
2021/12/25 05:24:09;;;;;;;1.83;0.60;;;-2.10;99.90;;;-1.15;100.00;-19687.50;5046909;28;20307;-67
2021/12/25 05:26:38;;;;;;;1.10;0.90;;;-1.90;99.90;;;-1.41;100.00;-19678.78;5050133;28;20205;-67
2021/12/25 05:29:07;;;;;;;1.77;0.90;;;-2.00;99.90;;;-1.41;100.00;-19678.78;5050456;28;20211;-65
2021/12/25 05:31:38;;;;;;;2.20;0.80;;;-2.10;99.90;;;-1.27;100.00;-19683.56;5050298;28;20297;-67
2021/12/25 05:34:06;;;;;;;1.00;0.80;;;-2.00;99.90;;;-1.22;100.00;-19685.28;5048500;28;20200;-67
2021/12/25 05:36:34;;;;;;;2.20;1.00;;;-1.90;99.90;;;-1.26;100.00;-19684.09;5051186;28;20334;-67
2021/12/25 05:39:08;;;;;;;1.80;0.77;;;-1.90;99.90;;;-1.30;100.00;-19682.53;5050405;28;20295;-67
2021/12/25 05:41:36;;;;;;;1.30;1.00;;;-2.00;99.90;;;-1.34;100.00;-19681.34;5050564;28;20227;-66
2021/12/25 05:44:05;;;;;;;1.77;0.80;;;-2.00;99.90;;;-1.43;100.00;-19678.09;5048045;28;20638;-62
2021/12/25 05:46:39;;;;;;;1.03;0.83;;;-2.00;99.90;;;-1.30;100.00;-19682.53;5049800;28;20205;-62
2021/12/25 05:49:07;;;;;;;1.50;1.10;;;-2.00;99.90;;;-1.49;100.00;-19676.03;5049666;28;20299;-62
2021/12/25 05:51:35;;;;;;;1.43;1.00;;;-2.10;99.90;;;-1.44;100.00;-19677.75;5047504;28;20204;-61
2021/12/25 05:54:03;;;;;;;1.67;1.00;;;-2.10;99.90;;;-1.34;100.00;-19681.34;5046388;28;20580;-62
2021/12/25 05:56:32;;;;;;;1.63;1.00;;;-2.10;99.90;;;-1.51;100.00;-19675.38;5049587;28;20299;-62
2021/12/25 05:59:00;;;;;;;1.83;1.00;;;-2.10;99.90;;;-1.35;100.00;-19681.00;5038117;28;20291;-62
2021/12/25 06:01:28;;;;;;;1.33;0.90;;;-2.10;99.90;;;-1.52;100.00;-19675.00;5050072;28;20213;-63
2021/12/25 06:03:58;;;;;;;1.47;0.90;;;-2.10;99.90;;;-1.42;100.00;-19678.44;5040413;28;20746;-61
2021/12/25 06:06:26;;;;;;;1.07;0.77;;;-2.10;99.90;;;-1.38;100.00;-19679.81;5046452;28;20247;-62
2021/12/25 06:08:54;;;;;;;0.93;0.70;;;-2.10;99.90;;;-1.46;100.00;-19677.06;5042021;28;20203;-61
2021/12/25 06:11:24;;;;;;;1.33;0.70;;;-2.10;99.90;;;-1.36;100.00;-19680.66;5037411;28;20294;-61
2021/12/25 06:14:05;;;;;;;0.80;0.70;;;-2.10;99.90;;;-1.32;100.00;-19681.84;5042903;28;20259;-61
2021/12/25 06:16:33;;;;;;;1.60;0.70;;;-2.00;99.90;;;-1.36;100.00;-19680.50;5041262;28;20250;-66
2021/12/25 06:19:03;;;;;;;1.83;1.00;;;-2.00;99.90;;;-1.47;100.00;-19676.91;5049794;28;20273;-66
2021/12/25 06:21:32;;;;;;;0.80;0.80;;;-2.10;99.90;;;-1.25;100.00;-19684.41;5049669;28;20204;-66
2021/12/25 06:24:02;;;;;;;1.10;0.80;;;-2.00;99.90;;;-1.35;100.00;-19680.81;5043913;28;20272;-65
2021/12/25 06:26:35;;;;;;;0.87;0.80;;;-2.00;99.90;;;-1.30;100.00;-19682.53;5050171;28;20189;-66
2021/12/25 06:29:04;;;;;;;1.90;0.97;;;-2.00;99.90;;;-1.26;100.00;-19684.09;5041618;28;20260;-66
2021/12/25 06:31:33;;;;;;;0.97;0.87;;;-1.90;99.90;;;-1.22;100.00;-19685.28;5031427;28;20216;-67
2021/12/25 06:34:03;;;;;;;1.33;0.93;;;-1.90;99.90;;;-1.36;100.00;-19680.66;5040155;28;20229;-62
2021/12/25 06:36:31;;;;;;;1.20;0.87;;;-1.90;99.90;;;-1.48;100.00;-19676.38;5048592;28;20270;-61
2021/12/25 06:39:00;;;;;;;2.43;1.10;;;-2.00;99.90;;;-1.48;100.00;-19676.56;5048399;28;20216;-62
2021/12/25 06:41:29;;;;;;;2.47;1.07;;;-2.00;99.90;;;-1.51;100.00;-19675.38;5047610;28;20846;-62
2021/12/25 06:43:57;;;;;;;2.03;1.00;;;-2.10;99.90;;;-1.08;100.00;-19690.06;5036839;28;20683;-62
2021/12/25 06:46:25;;;;;;;0.80;0.80;;;-1.90;99.90;;;-1.18;100.00;-19686.66;5047309;28;20213;-62
2021/12/25 06:48:54;;;;;;;1.43;0.90;;;-1.90;99.90;;;-1.41;100.00;-19678.78;5049716;28;20266;-61
2021/12/25 06:51:23;;;;;;;2.90;1.10;;;-1.90;99.90;;;-0.80;100.00;-19699.63;5049268;28;20247;-62
2021/12/25 06:53:51;;;;;;;1.17;0.83;;;-1.80;99.90;;;-1.17;100.00;-19686.81;5036127;28;20237;-62
2021/12/25 06:56:21;;;;;;;1.73;1.00;;;-1.80;99.90;;;-1.30;100.00;-19682.53;5045275;28;20295;-62
2021/12/25 06:58:49;;;;;;;1.20;0.90;;;-1.90;99.90;;;-1.00;100.00;-19692.81;5040933;28;20273;-62
2021/12/25 07:01:17;;;;;;;1.90;1.33;;;-1.80;99.90;;;-1.33;100.00;-19681.50;5049119;28;20232;-62
2021/12/25 07:03:46;;;;;;;3.23;1.47;;;-1.90;99.90;;;-1.25;100.00;-19684.41;5038714;28;20203;-62
2021/12/25 07:06:14;;;;;;;2.33;1.10;;;-1.90;99.90;;;-1.29;100.00;-19683.06;5048331;28;20285;-61
2021/12/25 07:08:43;;;;;;;2.57;1.47;;;-1.90;99.90;;;-1.35;100.00;-19680.81;5047972;28;20208;-60
2021/12/25 07:11:11;;;;;;;2.03;1.83;;;-1.90;99.90;;;-1.23;100.00;-19685.09;5045272;28;20751;-61
2021/12/25 07:13:42;;;;;;;2.27;1.30;;;-1.90;99.90;;;-1.37;100.00;-19680.16;5039063;28;20278;-62
2021/12/25 07:16:11;;;;;;;1.10;1.00;;;-1.90;99.90;;;-1.36;100.00;-19680.50;5048662;28;20325;-63
2021/12/25 07:18:39;;;;;;;3.20;1.20;;;-2.00;99.90;;;-0.95;100.00;-19694.34;5048830;28;20661;-63
2021/12/25 07:21:08;;;;;;;2.10;1.10;;;-1.80;99.90;;;-1.08;100.00;-19690.06;5037940;28;20315;-62
2021/12/25 07:23:36;;;;;;;2.83;1.23;;;-1.80;99.90;;;-1.13;100.00;-19688.34;5038331;28;20294;-61
2021/12/25 07:26:06;;;;;;;1.27;0.90;;;-1.70;99.90;;;-1.14;100.00;-19688.00;5043783;28;20231;-62
2021/12/25 07:28:34;;;;;;;2.00;1.00;;;-1.80;99.90;;;-1.47;100.00;-19676.72;5049289;28;20243;-66
2021/12/25 07:31:03;;;;;;;1.03;0.90;;;-2.00;99.90;;;-1.46;100.00;-19677.06;5038852;28;20238;-66
2021/12/25 07:33:32;;;;;;;2.73;1.03;;;-2.00;99.90;;;-1.35;100.00;-19681.00;5036624;28;20226;-67
2021/12/25 07:36:00;;;;;;;3.47;1.00;;;-2.00;99.90;;;-1.42;100.00;-19678.44;5044377;28;20285;-67
2021/12/25 07:38:28;;;;;;;1.83;1.30;;;-2.10;99.90;;;-1.37;100.00;-19680.16;5048768;28;20252;-67
2021/12/25 07:40:56;;;;;;;1.90;1.10;;;-2.00;99.90;;;-1.25;100.00;-19684.25;5047848;28;20263;-68
2021/12/25 07:43:26;;;;;;;2.97;1.20;;;-2.00;99.90;;;-1.29;100.00;-19682.88;5048191;28;20200;-67
2021/12/25 07:45:54;;;;;;;1.80;1.20;;;-2.00;99.90;;;-1.08;100.00;-19689.91;5043326;28;20691;-67
2021/12/25 07:48:25;;;;;;;2.00;1.20;;;-1.90;99.90;;;-1.30;100.00;-19682.53;5052155;28;20625;-66
2021/12/25 07:50:57;;;;;;;1.83;1.03;;;-1.90;99.90;;;-1.19;100.00;-19686.31;5044892;28;20261;-66
2021/12/25 07:53:25;;;;;;;1.20;1.10;;;-1.90;99.90;;;-1.44;100.00;-19677.75;5055770;28;20320;-61
2021/12/25 07:55:53;;;;;;;2.90;1.10;;;-2.00;99.90;;;-1.19;100.00;-19686.13;5051118;28;20714;-67
2021/12/25 07:58:21;;;;;;;1.00;0.90;;;-1.90;99.90;;;-1.45;100.00;-19677.41;5056032;28;20200;-67
2021/12/25 08:00:51;;;;;;;3.23;1.30;;;-2.00;99.90;;;-1.13;100.00;-19688.19;5055704;28;20730;-67
2021/12/25 08:03:20;;;;;;;2.70;1.10;;;-1.90;99.90;;;-1.02;100.00;-19691.94;5055634;28;20212;-68
2021/12/25 08:05:48;;;;;;;1.63;1.10;;;-1.90;99.90;;;-1.18;100.00;-19686.66;5053849;28;20196;-67
2021/12/25 08:08:16;;;;;;;1.93;1.10;;;-1.80;99.90;;;-0.87;100.00;-19697.25;5050126;28;20671;-66
2021/12/25 08:10:47;;;;;;;1.73;1.10;;;-1.70;99.90;;;-0.81;100.00;-19699.28;5049788;28;20210;-67
2021/12/25 08:13:16;;;;;;;2.50;1.13;;;-1.60;99.90;;;-1.10;100.00;-19689.38;5055575;28;20283;-66
2021/12/25 08:15:45;;;;;;;3.33;1.10;;;-1.70;99.90;;;-0.82;100.00;-19698.97;5055530;28;20239;-66
2021/12/25 08:18:16;;;;;;;1.20;1.00;;;-1.60;99.90;;;-0.64;100.00;-19705.09;5055750;28;20236;-65
2021/12/25 08:20:44;;;;;;;1.70;1.07;;;-1.50;99.90;;;-0.69;100.00;-19703.22;5055555;28;20323;-62
2021/12/25 08:23:12;;;;;;;1.73;1.10;;;-1.50;99.90;;;-0.61;100.00;-19706.13;5055404;28;20243;-61
2021/12/25 08:25:40;;;;;;;1.47;1.07;;;-1.40;99.90;;;-0.82;100.00;-19698.78;5055738;28;20209;-62
2021/12/25 08:28:09;;;;;;;2.30;1.17;;;-1.50;99.90;;;-0.61;100.00;-19705.97;5055299;28;20731;-62
2021/12/25 08:30:37;;;;;;;1.23;1.10;;;-1.50;99.90;;;-0.67;100.00;-19703.91;5055460;28;20294;-63
2021/12/25 08:33:06;;;;;;;2.20;1.30;;;-1.50;99.90;;;-0.91;100.00;-19695.88;5055452;28;20691;-63
2021/12/25 08:35:35;;;;;;;1.30;0.97;;;-1.60;99.90;;;-0.61;100.00;-19706.13;5055140;28;20318;-62
2021/12/25 08:38:04;;;;;;;2.53;1.20;;;-1.50;99.90;;;-0.75;100.00;-19701.34;5055621;28;20311;-62
2021/12/25 08:40:32;;;;;;;2.37;1.10;;;-1.60;99.90;;;-0.74;100.00;-19701.53;5054975;28;20680;-62
2021/12/25 08:43:02;;;;;;;1.23;1.00;;;-1.50;99.90;;;-0.86;100.00;-19697.59;5055465;28;20316;-63
2021/12/25 08:45:41;;;;;;;4.27;1.10;;;-1.50;99.90;;;-1.00;100.00;-19692.81;5055269;28;20239;-62
2021/12/25 08:48:17;;;;;;;1.07;0.90;;;-1.60;99.90;;;-1.13;100.00;-19688.34;5054866;28;20721;-63
2021/12/25 08:50:51;;;;;;;1.83;1.10;;;-1.80;99.90;;;-0.93;100.00;-19695.03;5055413;28;20192;-61
2021/12/25 08:53:23;;;;;;;1.60;1.10;;;-1.70;99.90;;;-1.03;100.00;-19691.59;5055809;28;20236;-62
2021/12/25 08:55:56;;;;;;;1.20;0.90;;;-1.70;99.90;;;-1.20;100.00;-19685.78;5054744;28;20679;-62
2021/12/25 08:58:25;;;;;;;1.63;1.20;;;-1.90;99.90;;;-1.17;100.00;-19687.00;5054607;28;20255;-61
2021/12/25 09:00:57;;;;;;;3.30;1.30;;;-1.90;99.90;;;-1.09;100.00;-19689.56;5054594;28;20294;-62
2021/12/25 09:03:27;;;;;;;1.80;1.27;;;-1.90;99.90;;;-1.22;100.00;-19685.44;5054751;28;20189;-61
2021/12/25 09:05:58;;;;;;;1.40;1.20;;;-2.00;99.90;;;-1.34;100.00;-19681.34;5054690;28;20233;-68
2021/12/25 09:08:27;;;;;;;2.60;1.27;;;-1.90;99.90;;;-1.42;100.00;-19678.59;5054888;28;20318;-65
2021/12/25 09:10:56;;;;;;;1.20;0.97;;;-2.00;99.90;;;-1.34;100.00;-19681.34;5055542;28;20239;-67
2021/12/25 09:13:24;;;;;;;2.00;1.17;;;-2.00;99.90;;;-1.22;100.00;-19685.28;5054916;28;20243;-67
2021/12/25 09:15:52;;;;;;;1.20;1.10;;;-1.90;99.90;;;-1.28;100.00;-19683.22;5053978;28;20777;-67
2021/12/25 09:18:20;;;;;;;1.30;1.20;;;-1.90;99.90;;;-1.29;100.00;-19682.88;5054168;28;20676;-67
2021/12/25 09:20:49;;;;;;;1.80;1.20;;;-1.90;99.90;;;-1.30;100.00;-19682.53;5054362;28;20205;-67
2021/12/25 09:23:19;;;;;;;2.00;1.30;;;-2.00;99.90;;;-1.42;100.00;-19678.44;5054511;28;20781;-67
2021/12/25 09:25:47;;;;;;;1.80;1.20;;;-2.10;99.90;;;-1.50;100.00;-19675.88;5054415;28;20623;-67
2021/12/25 09:28:15;;;;;;;1.30;1.20;;;-2.10;99.90;;;-1.72;100.00;-19668.19;5054071;28;20205;-69
2021/12/25 09:30:43;;;;;;;1.30;1.07;;;-2.20;99.90;;;-1.59;100.00;-19672.63;5054156;28;20231;-67
2021/12/25 09:33:12;;;;;;;2.20;1.27;;;-2.30;99.90;;;-1.73;100.00;-19668.00;5054202;28;20343;-69
2021/12/25 09:35:40;;;;;;;2.50;1.40;;;-2.30;99.90;;;-1.55;100.00;-19674.00;5054172;28;20318;-67
2021/12/25 09:38:08;;;;;;;2.83;1.33;;;-2.20;99.90;;;-1.55;100.00;-19674.16;5054279;28;20209;-68
2021/12/25 09:40:38;;;;;;;3.53;1.50;;;-2.20;99.90;;;-1.65;100.00;-19670.75;5053904;28;20224;-68
2021/12/25 09:43:06;;;;;;;2.20;1.50;;;-2.30;99.90;;;-1.60;100.00;-19672.28;5054167;28;20239;-67
2021/12/25 09:45:34;;;;;;;1.83;1.33;;;-2.30;99.90;;;-1.62;100.00;-19671.59;5053626;28;20211;-66
2021/12/25 09:48:03;;;;;;;1.63;1.30;;;-2.30;99.90;;;-1.95;100.00;-19660.50;5053968;28;20249;-66
2021/12/25 09:50:32;;;;;;;1.73;1.43;;;-2.50;99.90;;;-1.98;100.00;-19659.28;5053597;28;20326;-67
2021/12/25 09:53:00;;;;;;;1.57;1.33;;;-2.60;99.90;;;-2.12;100.00;-19654.50;5053884;28;20319;-68
2021/12/25 09:55:28;;;;;;;2.73;1.47;;;-2.60;99.90;;;-2.21;100.00;-19651.59;5053621;28;20334;-68
2021/12/25 09:57:58;;;;;;;2.67;1.40;;;-2.70;99.90;;;-2.30;100.00;-19648.34;5053773;28;20383;-66
2021/12/25 10:00:26;;;;;;;1.67;1.53;;;-2.70;99.90;;;-2.27;100.00;-19649.38;5053314;28;20223;-66
2021/12/25 10:03:15;;;;;;;2.30;1.50;;;-2.80;99.90;;;-2.20;100.00;-19651.75;5053565;28;20204;-66
2021/12/25 10:05:48;;;;;;;1.90;1.40;;;-2.80;99.90;;;-2.10;100.00;-19655.34;5053161;28;20245;-67
2021/12/25 10:08:20;;;;;;;3.27;1.50;;;-2.80;99.90;;;-2.15;100.00;-19653.66;5053452;28;20231;-68
2021/12/25 10:10:52;;;;;;;2.90;1.50;;;-2.80;99.90;;;-2.10;100.00;-19655.19;5052684;28;20259;-66
2021/12/25 10:13:27;;;;;;;3.73;1.40;;;-2.70;99.90;;;-1.87;100.00;-19663.06;5054438;28;20248;-62
2021/12/25 10:15:59;;;;;;;5.03;1.40;;;-2.60;99.90;;;-1.81;100.00;-19665.28;5053245;28;20840;-62
2021/12/25 10:18:32;;;;;;;2.67;1.30;;;-2.50;99.90;;;-1.78;100.00;-19666.31;5053128;28;20189;-63
2021/12/25 10:21:21;;;;;;;3.63;1.80;;;-2.40;99.90;;;-1.85;100.00;-19663.72;5053481;28;20276;-63
2021/12/25 10:24:10;;;;;;;1.40;1.20;;;-2.40;99.90;;;-1.57;100.00;-19673.47;5053382;28;20644;-62
2021/12/25 10:26:43;;;;;;;2.63;1.40;;;-2.30;99.90;;;-1.62;100.00;-19671.78;5053003;28;20630;-62
2021/12/25 10:29:23;;;;;;;2.27;1.43;;;-2.30;99.90;;;-1.58;100.00;-19672.97;5052757;28;20235;-62
2021/12/25 10:31:53;;;;;;;3.57;1.70;;;;;;;-1.25;100.00;-19684.25;5052563;28;20242;-62
2021/12/25 10:34:25;;;;;;;2.73;1.70;;;-2.20;99.90;;;-1.13;100.00;-19688.34;5052553;28;20552;-63
2021/12/25 10:36:54;;;;;;;4.10;1.60;;;-2.10;99.90;;;-1.10;100.00;-19689.22;5052803;28;20287;-63
2021/12/25 10:39:26;;;;;;;4.43;2.00;;;-2.00;99.90;;;-0.88;100.00;-19696.91;5053208;28;20299;-66
2021/12/25 10:41:58;;;;;;;2.60;1.43;;;-1.90;99.90;;;-0.69;100.00;-19703.22;5052647;28;20182;-66
2021/12/25 10:44:34;;;;;;;2.17;1.40;;;-1.80;99.90;;;-0.73;100.00;-19701.88;5053196;28;20280;-67
2021/12/25 10:47:06;;;;;;;2.50;1.40;;;-1.80;99.90;;;-0.71;100.00;-19702.72;5052902;28;20636;-67
2021/12/25 10:49:38;;;;;;;2.27;1.50;;;-1.70;99.90;;;-0.64;100.00;-19704.94;5052913;28;20285;-66
2021/12/25 10:52:19;;;;;;;2.03;1.60;;;-1.70;99.90;;;-0.70;100.00;-19702.88;5052726;28;20649;-66
2021/12/25 10:54:54;;;;;;;2.60;1.77;;;-1.60;99.90;;;-0.50;100.00;-19709.91;5052486;28;20244;-66
2021/12/25 10:57:38;;;;;;;2.40;1.40;;;-1.50;99.90;;;-0.52;100.00;-19709.03;5052851;28;20281;-62
2021/12/25 11:00:15;;;;;;;2.30;1.67;;;-1.60;99.90;;;-0.46;100.00;-19711.28;5052659;28;20201;-62
2021/12/25 11:02:48;;;;;;;2.67;1.70;;;-1.50;99.90;;;-0.58;100.00;-19707.00;5052585;28;20279;-63
2021/12/25 11:05:21;;;;;;;2.40;1.53;;;-1.50;99.90;;;-0.33;100.00;-19715.53;5052569;28;20210;-62
2021/12/25 11:08:06;;;;;;;3.10;1.87;;;-1.40;99.90;;;-0.37;100.00;-19714.16;5052304;28;20606;-61
2021/12/25 11:10:44;;;;;;;4.07;1.80;;;-1.50;99.90;;;-0.50;100.00;-19709.72;5052669;28;20281;-62
2021/12/25 11:13:25;;;;;;;4.60;2.73;;;-1.50;99.90;;;-0.34;100.00;-19715.19;5052513;28;20209;-62
2021/12/25 11:16:03;;;;;;;5.07;3.80;;;-1.40;99.90;;;-0.02;100.00;-19726.16;5052383;28;20296;-62